Time;durP1;ratioP1;P1;durP2;ratioP2;P2;SDS_P1;SDS_P2;PMS_P1;PMS_P2;Temp;Humidity;BMP_temperature;BMP_pressure;BME280_temperature;BME280_humidity;BME280_pressure;Samples;Min_cycle;Max_cycle;Signal;HPM_P1;HPM_P2
2024/01/24 00:00:04;;;;;;;1.97;0.83;;;;;;;8.40;100.00;98950.38;5056102;28;20236;-78
2024/01/24 00:02:31;;;;;;;4.27;1.10;;;;;;;8.36;100.00;98964.59;5056058;28;20292;-77
2024/01/24 00:04:59;;;;;;;4.23;1.07;;;;;;;8.42;100.00;98953.78;5055954;28;20214;-78
2024/01/24 00:07:26;;;;;;;5.23;1.20;;;;;;;8.39;100.00;98951.28;5056224;28;20210;-78
2024/01/24 00:09:52;;;;;;;1.83;0.60;;;;;;;8.45;100.00;98951.84;5056630;28;20206;-78
2024/01/24 00:12:19;;;;;;;2.50;1.13;;;;;;;8.64;100.00;98930.75;5055238;28;20241;-77
2024/01/24 00:14:46;;;;;;;4.63;1.77;;;;;;;8.66;100.00;98936.78;5051390;28;20293;-77
2024/01/24 00:17:12;;;;;;;3.23;1.00;;;;;;;8.67;100.00;98933.22;5051034;28;20247;-76
2024/01/24 00:19:39;;;;;;;2.50;0.90;;;;;;;8.69;100.00;98920.84;5051867;28;20314;-77
2024/01/24 00:22:06;;;;;;;3.53;1.30;;;;;;;8.70;100.00;98906.72;5052106;28;20233;-79
2024/01/24 00:24:33;;;;;;;5.63;0.90;;;;;;;8.71;100.00;98901.38;5051284;28;20215;-76
2024/01/24 00:26:59;;;;;;;7.57;1.20;;;;;;;8.87;100.00;98890.94;5053195;28;20211;-79
2024/01/24 00:29:26;;;;;;;1.13;0.70;;;;;;;8.90;100.00;98891.63;5051138;28;20211;-77
2024/01/24 00:31:56;;;;;;;3.87;1.00;;;;;;;8.86;100.00;98897.09;5053415;28;20231;-77
2024/01/24 00:34:22;;;;;;;5.60;0.90;;;;;;;8.87;100.00;98894.41;5052560;28;20213;-77
2024/01/24 00:36:50;;;;;;;2.10;0.80;;;;;;;8.85;100.00;98884.84;5051951;28;20218;-77
2024/01/24 00:39:18;;;;;;;2.67;1.30;;;;;;;8.89;100.00;98875.88;5053016;28;20257;-77
2024/01/24 00:41:46;;;;;;;5.90;1.33;;;;;;;8.82;100.00;98874.50;5052563;28;20810;-78
2024/01/24 00:44:13;;;;;;;2.10;0.90;;;;;;;8.80;100.00;98876.31;5052602;28;20218;-77
2024/01/24 00:46:39;;;;;;;3.30;1.00;;;;;;;8.83;100.00;98881.47;5051867;28;20212;-77
2024/01/24 00:49:09;;;;;;;4.33;1.50;;;;;;;8.91;100.00;98880.16;5052731;28;20207;-78
2024/01/24 00:51:36;;;;;;;4.27;1.20;;;;;;;8.86;100.00;98892.69;5056619;28;20257;-77
2024/01/24 00:54:02;;;;;;;3.00;0.80;;;;;;;8.99;100.00;98909.59;5056703;28;20210;-77
2024/01/24 00:56:30;;;;;;;4.23;1.00;;;;;;;9.06;100.00;98899.59;5055381;28;20208;-77
2024/01/24 00:58:58;;;;;;;5.60;1.00;;;;;;;9.07;100.00;98896.88;5056128;28;20254;-77
2024/01/24 01:01:24;;;;;;;4.33;1.10;;;;;;;9.11;100.00;98894.97;5055766;28;20231;-77
2024/01/24 01:03:54;;;;;;;1.57;0.80;;;;;;;9.27;98.34;98882.66;5055204;28;20587;-77
2024/01/24 01:06:22;;;;;;;2.43;0.80;;;;;;;9.25;99.21;98892.47;5056033;28;20689;-77
2024/01/24 01:08:49;;;;;;;1.93;0.87;;;;;;;9.35;97.94;98880.47;5056511;28;20261;-77
2024/01/24 01:11:15;;;;;;;3.37;0.87;;;;;;;9.31;98.33;98878.94;5056791;28;20242;-77
2024/01/24 01:13:43;;;;;;;1.93;0.73;;;;;;;9.29;98.29;98876.38;5055611;28;20223;-77
2024/01/24 01:16:09;;;;;;;3.43;1.00;;;;;;;9.25;98.57;98866.91;5054691;28;20212;-77
2024/01/24 01:18:36;;;;;;;4.80;0.87;;;;;;;9.29;98.38;98870.25;5055659;28;20211;-79
2024/01/24 01:21:02;;;;;;;3.17;1.00;;;;;;;9.29;98.07;98870.25;5054444;28;20249;-78
2024/01/24 01:23:30;;;;;;;1.93;0.90;;;;;;;9.24;98.80;98853.81;5054807;28;20579;-79
2024/01/24 01:25:56;;;;;;;2.43;1.00;;;;;;;9.21;98.63;98856.59;5054776;28;20673;-78
2024/01/24 01:28:22;;;;;;;3.30;0.83;;;;;;;9.19;98.56;98850.56;5054819;28;20216;-78
2024/01/24 01:30:50;;;;;;;2.37;0.90;;;;;;;9.12;99.99;98851.81;5054920;28;20218;-77
2024/01/24 01:33:17;;;;;;;4.77;0.83;;;;;;;9.06;100.00;98868.81;5055404;28;20306;-77
2024/01/24 01:35:43;;;;;;;1.93;0.90;;;;;;;9.02;100.00;98869.03;5054004;28;20204;-77
2024/01/24 01:38:10;;;;;;;2.73;1.00;;;;;;;9.03;100.00;98874.25;5054594;28;20213;-77
2024/01/24 01:40:36;;;;;;;5.10;1.07;;;;;;;9.07;100.00;98867.03;5055187;28;20722;-77
2024/01/24 01:43:09;;;;;;;2.50;0.83;;;;;;;9.13;100.00;98866.72;5055621;28;20233;-77
2024/01/24 01:45:36;;;;;;;1.40;0.77;;;;;;;9.21;99.88;98862.75;5054921;28;20222;-79
2024/01/24 01:48:05;;;;;;;2.77;1.00;;;;;;;9.31;98.21;98857.84;5054063;28;20219;-79
2024/01/24 01:50:31;;;;;;;2.73;0.87;;;;;;;9.42;96.69;98842.31;5053929;28;20216;-80
2024/01/24 01:52:59;;;;;;;1.23;0.60;;;;;;;9.41;96.97;98848.50;5055975;28;20233;-79
2024/01/24 01:55:26;;;;;;;2.70;0.90;;;;;;;9.38;97.34;98859.22;5055782;28;20310;-78
2024/01/24 01:57:54;;;;;;;3.13;0.83;;;;;;;9.39;97.49;98866.19;5056198;28;20217;-78
2024/01/24 02:00:21;;;;;;;3.17;1.03;;;;;;;9.40;98.71;98862.63;5053929;28;20227;-78
2024/01/24 02:02:48;;;;;;;4.53;0.90;;;;;;;9.38;98.44;98861.84;5053021;28;20242;-77
2024/01/24 02:05:16;;;;;;;1.87;0.53;;;;;;;9.36;98.91;98864.56;5054162;28;20211;-79
2024/01/24 02:07:44;;;;;;;4.00;0.90;;;;;;;9.40;98.90;98859.97;5057080;28;20211;-79
2024/01/24 02:10:11;;;;;;;2.57;0.77;;;;;;;9.44;97.95;98859.75;5057952;28;20414;-77
2024/01/24 02:12:38;;;;;;;2.10;0.70;;;;;;;9.49;98.06;98857.69;5057818;28;20239;-78
2024/01/24 02:15:06;;;;;;;2.57;0.70;;;;;;;9.50;97.80;98848.88;5058017;28;20213;-78
2024/01/24 02:17:32;;;;;;;2.23;0.83;;;;;;;9.50;97.78;98842.75;5056498;28;20215;-77
2024/01/24 02:19:59;;;;;;;3.23;1.00;;;;;;;9.54;98.19;98839.00;5057613;28;20243;-77
2024/01/24 02:22:26;;;;;;;2.80;0.80;;;;;;;9.47;98.29;98827.06;5054085;28;20238;-78
2024/01/24 02:24:54;;;;;;;2.70;0.80;;;;;;;9.46;98.38;98833.28;5057915;28;20211;-77
2024/01/24 02:27:21;;;;;;;1.27;0.77;;;;;;;9.44;98.63;98820.19;5057883;28;20211;-77
2024/01/24 02:29:47;;;;;;;2.73;0.90;;;;;;;9.43;98.81;98842.19;5057901;28;20225;-77
2024/01/24 02:32:14;;;;;;;2.03;0.90;;;;;;;9.43;99.04;98838.72;5059825;28;20259;-77
2024/01/24 02:34:50;;;;;;;2.57;0.80;;;;;;;9.44;99.05;98832.50;5059349;28;20216;-77
2024/01/24 02:37:19;;;;;;;1.73;0.60;;;;;;;9.44;98.90;98819.31;5059787;28;20214;-77
2024/01/24 02:39:46;;;;;;;3.37;0.90;;;;;;;9.40;98.53;98810.72;5063756;28;20325;-77
2024/01/24 02:42:14;;;;;;;3.10;0.90;;;;;;;9.37;98.74;98821.41;5063568;28;20248;-79
2024/01/24 02:44:40;;;;;;;2.47;0.77;;;;;;;9.33;98.95;98819.03;5062495;28;20205;-77
2024/01/24 02:47:07;;;;;;;3.63;1.00;;;;;;;9.21;99.07;98811.78;5057742;28;20240;-77
2024/01/24 02:49:33;;;;;;;2.10;0.90;;;;;;;9.15;99.38;98815.59;5053367;28;20702;-77
2024/01/24 02:52:02;;;;;;;3.10;1.20;;;;;;;9.04;99.94;98817.06;5053726;28;20594;-77
2024/01/24 02:54:28;;;;;;;3.20;0.80;;;;;;;9.02;100.00;98808.41;5053329;28;20208;-77
2024/01/24 02:56:55;;;;;;;0.80;0.50;;;;;;;8.87;100.00;98814.47;5052997;28;20216;-77
2024/01/24 02:59:23;;;;;;;3.50;0.93;;;;;;;8.79;100.00;98811.38;5053306;28;20650;-77
2024/01/24 03:01:49;;;;;;;1.47;0.70;;;;;;;8.76;100.00;98808.91;5052583;28;20238;-77
2024/01/24 03:04:17;;;;;;;2.30;0.70;;;;;;;8.74;100.00;98808.09;5053089;28;20654;-79
2024/01/24 03:06:44;;;;;;;2.00;0.70;;;;;;;8.73;100.00;98811.69;5052232;28;20207;-77
2024/01/24 03:09:10;;;;;;;1.87;0.97;;;;;;;8.75;100.00;98820.38;5053100;28;20226;-79
2024/01/24 03:11:38;;;;;;;2.03;0.60;;;;;;;8.73;100.00;98814.31;5052811;28;20234;-77
2024/01/24 03:14:04;;;;;;;3.13;0.63;;;;;;;8.74;100.00;98826.56;5052435;28;20712;-78
2024/01/24 03:16:32;;;;;;;2.17;0.70;;;;;;;8.72;100.00;98831.94;5052374;28;20211;-78
2024/01/24 03:18:59;;;;;;;2.60;0.80;;;;;;;8.76;100.00;98827.34;5052622;28;20211;-78
2024/01/24 03:21:25;;;;;;;1.87;0.73;;;;;;;8.83;100.00;98820.84;5053032;28;20607;-78
2024/01/24 03:23:51;;;;;;;2.40;0.70;;;;;;;8.91;100.00;98816.88;5053051;28;20206;-78
2024/01/24 03:26:18;;;;;;;2.77;0.70;;;;;;;8.94;100.00;98826.41;5052453;28;20211;-77
2024/01/24 03:28:44;;;;;;;4.60;0.97;;;;;;;9.01;100.00;98828.63;5052731;28;20211;-77
2024/01/24 03:31:11;;;;;;;3.10;0.50;;;;;;;9.05;100.00;98829.34;5052493;28;20219;-78
2024/01/24 03:33:39;;;;;;;0.77;0.60;;;;;;;9.08;100.00;98830.03;5052560;28;20576;-78
2024/01/24 03:36:06;;;;;;;2.80;0.90;;;;;;;9.12;100.00;98830.72;5052508;28;20648;-79
2024/01/24 03:38:33;;;;;;;1.23;0.70;;;;;;;9.17;100.00;98818.16;5058092;28;20218;-78
2024/01/24 03:40:59;;;;;;;2.03;0.90;;;;;;;9.21;100.00;98822.31;5058222;28;20229;-78
2024/01/24 03:43:26;;;;;;;2.73;0.70;;;;;;;9.27;100.00;98829.91;5058204;28;20211;-78
2024/01/24 03:45:52;;;;;;;2.17;1.10;;;;;;;9.25;100.00;98837.06;5058545;28;20229;-78
2024/01/24 03:48:19;;;;;;;1.83;0.77;;;;;;;9.27;100.00;98829.91;5058038;28;20279;-78
2024/01/24 03:50:47;;;;;;;1.77;0.70;;;;;;;9.28;100.00;98821.06;5058955;28;20207;-78
2024/01/24 03:53:13;;;;;;;1.53;0.93;;;;;;;9.34;100.00;98815.47;5059571;28;20230;-78
2024/01/24 03:55:39;;;;;;;0.80;0.60;;;;;;;9.35;100.00;98817.16;5059621;28;20590;-78
2024/01/24 03:58:06;;;;;;;2.20;0.83;;;;;;;9.41;100.00;98811.56;5058559;28;20207;-78
2024/01/24 04:00:33;;;;;;;0.83;0.60;;;;;;;9.42;100.00;98800.09;5058891;28;20241;-78
2024/01/24 04:02:59;;;;;;;2.93;0.87;;;;;;;9.44;100.00;98806.13;5058845;28;20725;-78
2024/01/24 04:05:26;;;;;;;3.93;0.77;;;;;;;9.44;100.00;98819.31;5059066;28;20214;-78
2024/01/24 04:07:54;;;;;;;6.03;0.90;;;;;;;9.47;100.00;98812.09;5058158;28;20204;-78
2024/01/24 04:10:20;;;;;;;3.57;0.90;;;;;;;9.49;100.00;98814.66;5058791;28;20233;-78
2024/01/24 04:12:47;;;;;;;2.23;0.80;;;;;;;9.49;100.00;98809.38;5059162;28;20231;-78
2024/01/24 04:15:14;;;;;;;1.97;0.70;;;;;;;9.54;100.00;98816.09;5058448;28;20215;-78
2024/01/24 04:17:40;;;;;;;0.97;0.70;;;;;;;9.62;100.00;98824.44;5057585;28;20578;-78
2024/01/24 04:20:08;;;;;;;3.00;0.83;;;;;;;9.66;100.00;98827.78;5057887;28;20240;-78
2024/01/24 04:22:35;;;;;;;1.43;1.00;;;;;;;9.70;100.00;98842.50;5055184;28;20233;-78
2024/01/24 04:25:03;;;;;;;2.80;0.77;;;;;;;9.74;100.00;98838.78;5054010;28;20214;-78
2024/01/24 04:27:29;;;;;;;1.47;0.67;;;;;;;9.74;100.00;98844.06;5055051;28;20219;-77
2024/01/24 04:29:55;;;;;;;2.80;0.80;;;;;;;9.79;100.00;98840.22;5056008;28;20599;-77
2024/01/24 04:32:22;;;;;;;2.93;0.73;;;;;;;9.86;100.00;98822.25;5055629;28;20228;-79
2024/01/24 04:34:49;;;;;;;2.30;0.83;;;;;;;9.89;100.00;98828.22;5055625;28;20584;-78
2024/01/24 04:37:18;;;;;;;3.47;1.20;;;;;;;9.93;100.00;98823.63;5055967;28;20752;-79
2024/01/24 04:39:44;;;;;;;4.40;1.10;;;;;;;9.93;100.00;98831.53;5057475;28;20700;-77
2024/01/24 04:42:12;;;;;;;4.33;1.13;;;;;;;9.94;100.00;98838.53;5054504;28;20612;-77
2024/01/24 04:44:39;;;;;;;2.43;1.00;;;;;;;9.93;100.00;98832.41;5054538;28;20208;-77
2024/01/24 04:47:06;;;;;;;2.83;1.23;;;;;;;9.97;100.00;98833.09;5055220;28;20210;-77
2024/01/24 04:49:32;;;;;;;3.10;0.97;;;;;;;9.97;100.00;98838.38;5055738;28;20215;-77
2024/01/24 04:52:00;;;;;;;2.57;0.87;;;;;;;9.95;100.00;98846.38;5055590;28;20227;-78
2024/01/24 04:54:26;;;;;;;1.03;0.70;;;;;;;9.93;100.00;98842.97;5055169;28;20213;-78
2024/01/24 04:56:53;;;;;;;2.13;0.77;;;;;;;9.90;100.00;98839.66;5054530;28;20219;-77
2024/01/24 04:59:21;;;;;;;1.90;0.80;;;;;;;9.88;100.00;98830.94;5054998;28;20228;-77
2024/01/24 05:01:48;;;;;;;1.97;0.80;;;;;;;9.89;100.00;98835.28;5055586;28;20235;-77
2024/01/24 05:04:14;;;;;;;2.40;0.67;;;;;;;9.88;100.00;98841.50;5055536;28;20277;-79
2024/01/24 05:06:43;;;;;;;2.67;0.90;;;;;;;9.89;100.00;98848.47;5055218;28;20205;-79
2024/01/24 05:09:10;;;;;;;1.33;0.70;;;;;;;9.90;100.00;98834.38;5059695;28;20209;-78
2024/01/24 05:11:36;;;;;;;4.10;1.20;;;;;;;9.86;100.00;98843.38;5061052;28;20233;-78
2024/01/24 05:14:03;;;;;;;2.70;0.93;;;;;;;9.85;100.00;98839.03;5054705;28;20210;-77
2024/01/24 05:16:30;;;;;;;2.30;0.93;;;;;;;9.87;100.00;98837.16;5054541;28;20591;-77
2024/01/24 05:18:57;;;;;;;3.73;1.17;;;;;;;9.92;100.00;98829.84;5055057;28;20214;-77
2024/01/24 05:21:23;;;;;;;4.63;1.10;;;;;;;9.88;100.00;98850.28;5054463;28;20709;-77
2024/01/24 05:23:51;;;;;;;1.90;0.90;;;;;;;9.93;100.00;98863.22;5054406;28;20206;-78
2024/01/24 05:26:18;;;;;;;2.60;0.87;;;;;;;9.92;100.00;98854.44;5053757;28;20663;-77
2024/01/24 05:28:44;;;;;;;4.83;1.00;;;;;;;9.96;100.00;98865.69;5054433;28;20230;-77
2024/01/24 05:31:11;;;;;;;1.40;0.97;;;;;;;10.13;100.00;98852.44;5054225;28;20213;-77
2024/01/24 05:33:39;;;;;;;2.93;1.30;;;;;;;10.27;100.00;98836.69;5054303;28;20212;-77
2024/01/24 05:36:06;;;;;;;3.40;1.00;;;;;;;10.41;100.00;98828.81;5054447;28;20586;-77
2024/01/24 05:38:33;;;;;;;1.47;0.90;;;;;;;10.53;100.00;98833.38;5053860;28;20223;-77
2024/01/24 05:41:02;;;;;;;2.80;1.00;;;;;;;10.66;100.00;98823.78;5053818;28;20300;-77
2024/01/24 05:43:29;;;;;;;2.30;1.00;;;;;;;10.79;100.00;98830.06;5054656;28;20630;-77
2024/01/24 05:45:56;;;;;;;1.30;0.90;;;;;;;10.82;100.00;98835.19;5054175;28;20211;-77
2024/01/24 05:48:22;;;;;;;1.57;0.80;;;;;;;10.85;100.00;98850.84;5054402;28;20212;-77
2024/01/24 05:50:50;;;;;;;1.80;0.73;;;;;;;10.86;100.00;98826.97;5055765;28;20211;-77
2024/01/24 05:53:16;;;;;;;0.97;0.80;;;;;;;10.93;100.00;98816.84;5054996;28;20245;-77
2024/01/24 05:55:43;;;;;;;1.17;0.90;;;;;;;10.94;100.00;98805.38;5054378;28;20622;-77
2024/01/24 05:58:09;;;;;;;1.40;0.70;;;;;;;10.94;100.00;98784.22;5054319;28;20265;-77
2024/01/24 06:00:36;;;;;;;3.13;0.77;;;;;;;10.94;100.00;98782.41;5054419;28;20228;-77
2024/01/24 06:03:03;;;;;;;2.27;0.80;;;;;;;11.02;100.00;98789.88;5054127;28;20236;-77
2024/01/24 06:05:29;;;;;;;1.00;0.80;;;;;;;10.99;100.00;98803.28;5054504;28;20204;-77
2024/01/24 06:07:57;;;;;;;2.53;0.80;;;;;;;10.98;100.00;98799.78;5054057;28;20222;-77
2024/01/24 06:10:23;;;;;;;1.47;0.90;;;;;;;10.98;100.00;98806.88;5054747;28;20221;-77
2024/01/24 06:12:50;;;;;;;3.73;1.20;;;;;;;10.95;100.00;98817.66;5053996;28;20239;-77
2024/01/24 06:15:18;;;;;;;2.07;0.90;;;;;;;10.95;100.00;98805.25;5054448;28;20212;-77
2024/01/24 06:17:47;;;;;;;3.23;0.70;;;;;;;10.93;100.00;98822.16;5054246;28;20258;-77
2024/01/24 06:20:13;;;;;;;1.90;0.67;;;;;;;10.96;100.00;98821.97;5053727;28;20221;-77
2024/01/24 06:22:40;;;;;;;1.70;0.80;;;;;;;10.98;100.00;98825.38;5053852;28;20236;-77
2024/01/24 06:25:09;;;;;;;1.87;0.93;;;;;;;11.07;100.00;98830.13;5053618;28;20214;-77
2024/01/24 06:27:36;;;;;;;1.27;0.80;;;;;;;11.05;100.00;98819.63;5053347;28;20210;-77
2024/01/24 06:30:03;;;;;;;2.60;0.80;;;;;;;11.06;100.00;98820.50;5054090;28;20314;-77
2024/01/24 06:32:29;;;;;;;2.60;0.70;;;;;;;11.10;100.00;98824.63;5053491;28;20771;-77
2024/01/24 06:34:56;;;;;;;1.57;0.60;;;;;;;11.12;100.00;98822.78;5053534;28;20217;-77
2024/01/24 06:37:22;;;;;;;0.90;0.60;;;;;;;11.20;100.00;98820.50;5052061;28;20212;-77
2024/01/24 06:39:50;;;;;;;2.00;0.83;;;;;;;11.22;100.00;98821.25;5053201;28;20212;-77
2024/01/24 06:42:19;;;;;;;0.70;0.70;;;;;;;11.20;100.00;98817.88;5052991;28;20231;-78
2024/01/24 06:44:46;;;;;;;1.60;0.50;;;;;;;11.25;100.00;98807.84;5052496;28;20297;-78
2024/01/24 06:47:12;;;;;;;1.43;0.70;;;;;;;11.26;100.00;98813.03;5051388;28;20222;-77
2024/01/24 06:49:39;;;;;;;2.60;0.60;;;;;;;11.29;100.00;98804.06;5052183;28;20691;-77
2024/01/24 06:52:06;;;;;;;1.23;0.60;;;;;;;11.30;100.00;98803.09;5052332;28;20221;-76
2024/01/24 06:54:35;;;;;;;1.87;0.60;;;;;;;11.35;100.00;98808.97;5052369;28;20628;-77
2024/01/24 06:57:01;;;;;;;1.03;0.60;;;;;;;11.28;100.00;98802.34;5051768;28;20208;-76
2024/01/24 06:59:29;;;;;;;0.70;0.40;;;;;;;11.26;100.00;98813.03;5052503;28;20211;-77
2024/01/24 07:01:59;;;;;;;1.47;0.70;;;;;;;11.25;100.00;98807.84;5052109;28;20242;-77
2024/01/24 07:04:26;;;;;;;1.33;0.50;;;;;;;11.28;100.00;98803.22;5052788;28;20640;-77
2024/01/24 07:06:52;;;;;;;0.70;0.53;;;;;;;11.30;100.00;98795.16;5051816;28;20699;-77
2024/01/24 07:09:19;;;;;;;0.70;0.50;;;;;;;11.36;100.00;98789.50;5052916;28;20217;-78
2024/01/24 07:11:45;;;;;;;0.83;0.57;;;;;;;11.37;100.00;98778.81;5053489;28;20228;-78
2024/01/24 07:14:14;;;;;;;0.50;0.40;;;;;;;11.45;100.00;98784.50;5053517;28;20206;-78
2024/01/24 07:16:42;;;;;;;0.93;0.50;;;;;;;11.49;100.00;98774.56;5052927;28;20208;-78
2024/01/24 07:19:09;;;;;;;0.53;0.50;;;;;;;11.50;100.00;98776.28;5053421;28;20239;-78
2024/01/24 07:21:35;;;;;;;1.27;0.50;;;;;;;11.61;100.00;98773.84;5054440;28;20236;-78
2024/01/24 07:24:02;;;;;;;0.80;0.67;;;;;;;11.67;100.00;98779.59;5051500;28;20317;-78
2024/01/24 07:26:29;;;;;;;1.10;0.50;;;;;;;11.68;100.00;98775.16;5053853;28;20260;-76
2024/01/24 07:28:55;;;;;;;1.10;0.60;;;;;;;11.69;100.00;98782.13;5052762;28;20214;-79
2024/01/24 07:31:22;;;;;;;1.03;0.60;;;;;;;11.71;100.00;98790.81;5057904;28;20244;-78
2024/01/24 07:33:50;;;;;;;1.37;0.90;;;;;;;11.71;100.00;98786.41;5075482;28;20592;-78
2024/01/24 07:36:16;;;;;;;0.80;0.60;;;;;;;11.73;100.00;98788.94;5074162;28;20210;-78
2024/01/24 07:38:43;;;;;;;0.40;0.40;;;;;;;11.84;100.00;98767.91;5075629;28;20217;-79
2024/01/24 07:41:10;;;;;;;0.70;0.50;;;;;;;11.91;100.00;98779.81;5075059;28;20230;-78
2024/01/24 07:43:36;;;;;;;0.30;0.30;;;;;;;11.91;100.00;98771.84;5075136;28;20224;-79
2024/01/24 07:46:03;;;;;;;1.43;0.50;;;;;;;11.94;100.00;98771.69;5075136;28;20203;-78
2024/01/24 07:48:30;;;;;;;1.20;0.40;;;;;;;11.96;100.00;98780.38;5075654;28;20219;-78
2024/01/24 07:50:57;;;;;;;0.53;0.40;;;;;;;12.01;100.00;98788.88;5073493;28;20221;-78
2024/01/24 07:53:24;;;;;;;0.80;0.50;;;;;;;12.04;100.00;98804.59;5073294;28;20213;-78
2024/01/24 07:55:50;;;;;;;0.73;0.50;;;;;;;12.06;100.00;98792.06;5073055;28;20213;-79
2024/01/24 07:58:17;;;;;;;1.03;0.43;;;;;;;12.12;100.00;98786.38;5072661;28;20207;-78
2024/01/24 08:00:43;;;;;;;0.30;0.30;;;;;;;12.11;100.00;98795.28;5073310;28;20670;-77
2024/01/24 08:03:10;;;;;;;0.50;0.50;;;;;;;12.23;100.00;98802.44;5069923;28;20348;-77
2024/01/24 08:05:36;;;;;;;0.40;0.40;;;;;;;12.24;100.00;98796.19;5073863;28;20643;-78
2024/01/24 08:08:05;;;;;;;0.30;0.30;;;;;;;12.21;100.00;98809.63;5076860;28;20213;-78
2024/01/24 08:10:31;;;;;;;0.90;0.50;;;;;;;12.23;100.00;98821.00;5077175;28;20217;-78
2024/01/24 08:12:58;;;;;;;1.23;0.50;;;;;;;12.16;100.00;98819.69;5077529;28;20296;-78
2024/01/24 08:15:25;;;;;;;2.20;0.50;;;;;;;12.18;100.00;98823.91;5076139;28;20219;-78
2024/01/24 08:17:51;;;;;;;1.03;0.50;;;;;;;12.27;100.00;98822.47;5076131;28;20211;-78
2024/01/24 08:20:19;;;;;;;0.87;0.50;;;;;;;12.22;100.00;98824.59;5076816;28;20221;-79
2024/01/24 08:22:46;;;;;;;0.93;0.53;;;;;;;12.25;100.00;98825.25;5075133;28;20266;-78
2024/01/24 08:25:14;;;;;;;0.40;0.40;;;;;;;12.26;100.00;98834.91;5074575;28;20207;-78
2024/01/24 08:27:40;;;;;;;0.47;0.47;;;;;;;12.28;100.00;98827.69;5070699;28;20222;-78
2024/01/24 08:30:06;;;;;;;0.40;0.40;;;;;;;12.33;100.00;98832.69;5071487;28;20233;-78
2024/01/24 08:32:33;;;;;;;0.93;0.40;;;;;;;12.30;100.00;98828.41;5073734;28;20294;-78
2024/01/24 08:34:59;;;;;;;0.63;0.40;;;;;;;12.33;100.00;98837.97;5072145;28;20215;-78
2024/01/24 08:37:28;;;;;;;0.67;0.30;;;;;;;12.32;100.00;98837.16;5071202;28;20264;-78
2024/01/24 08:39:55;;;;;;;0.30;0.30;;;;;;;12.34;100.00;98850.31;5071897;28;20220;-78
2024/01/24 08:42:23;;;;;;;0.83;0.50;;;;;;;12.38;100.00;98847.34;5071767;28;20231;-78
2024/01/24 08:44:49;;;;;;;0.43;0.30;;;;;;;12.38;100.00;98841.19;5071351;28;20218;-78
2024/01/24 08:47:16;;;;;;;0.40;0.30;;;;;;;12.42;100.00;98845.34;5071050;28;20215;-78
2024/01/24 08:49:42;;;;;;;0.57;0.50;;;;;;;12.38;100.00;98855.31;5071483;28;20213;-77
2024/01/24 08:52:09;;;;;;;0.37;0.37;;;;;;;12.44;100.00;98862.84;5070158;28;20227;-78
2024/01/24 08:54:35;;;;;;;0.70;0.40;;;;;;;12.44;100.00;98856.69;5071017;28;20211;-80
2024/01/24 08:57:02;;;;;;;2.57;0.70;;;;;;;12.47;100.00;98856.50;5070741;28;20214;-78
2024/01/24 08:59:29;;;;;;;0.57;0.40;;;;;;;12.53;100.00;98859.59;5071118;28;20203;-79
2024/01/24 09:01:57;;;;;;;0.50;0.40;;;;;;;12.49;100.00;98862.56;5071941;28;20236;-79
2024/01/24 09:04:23;;;;;;;0.40;0.40;;;;;;;12.54;100.00;98852.50;5069916;28;20262;-78
2024/01/24 09:06:50;;;;;;;0.73;0.30;;;;;;;12.54;100.00;98860.47;5070802;28;20212;-78
2024/01/24 09:09:18;;;;;;;0.53;0.53;;;;;;;12.60;100.00;98862.72;5071422;28;20216;-78
2024/01/24 09:11:45;;;;;;;0.30;0.30;;;;;;;12.57;100.00;98860.25;5077594;28;20228;-78
2024/01/24 09:14:11;;;;;;;0.30;0.30;;;;;;;12.61;100.00;98861.75;5077834;28;20210;-79
2024/01/24 09:16:39;;;;;;;0.30;0.30;;;;;;;12.58;100.00;98859.28;5077912;28;20203;-78
2024/01/24 09:19:06;;;;;;;0.30;0.30;;;;;;;12.59;100.00;98866.31;5078546;28;20217;-78
2024/01/24 09:21:32;;;;;;;0.30;0.30;;;;;;;12.58;100.00;98864.59;5077159;28;20591;-78
2024/01/24 09:24:01;;;;;;;0.30;0.30;;;;;;;12.58;100.00;98861.94;5077059;28;20208;-79
2024/01/24 09:26:28;;;;;;;0.33;0.20;;;;;;;12.60;100.00;98852.94;5073965;28;20310;-79
2024/01/24 09:28:54;;;;;;;0.97;0.30;;;;;;;12.61;100.00;98869.72;5075559;28;20211;-79
2024/01/24 09:31:21;;;;;;;0.40;0.30;;;;;;;12.65;100.00;98850.00;5074823;28;20243;-77
2024/01/24 09:33:49;;;;;;;0.20;0.20;;;;;;;12.70;100.00;98858.47;5074894;28;20204;-79
2024/01/24 09:36:15;;;;;;;0.30;0.30;;;;;;;12.68;100.00;98858.59;5073540;28;20265;-77
2024/01/24 09:38:43;;;;;;;6.97;1.10;;;;;;;12.73;100.00;98863.59;5074157;28;20218;-77
2024/01/24 09:41:17;;;;;;;0.77;0.37;;;;;;;12.76;100.00;98858.06;5076463;28;20727;-77
2024/01/24 09:43:46;;;;;;;1.57;0.70;;;;;;;12.75;100.00;98859.03;5075699;28;20231;-77
2024/01/24 09:46:16;;;;;;;0.30;0.20;;;;;;;12.75;100.00;98851.94;5073918;28;20218;-77
2024/01/24 09:48:45;;;;;;;0.20;0.20;;;;;;;12.68;100.00;98848.00;5075135;28;20210;-77
2024/01/24 09:51:13;;;;;;;0.30;0.30;;;;;;;12.66;100.00;98846.38;5074922;28;20309;-79
2024/01/24 09:53:44;;;;;;;0.50;0.30;;;;;;;12.67;100.00;98848.09;5074103;28;20256;-76
2024/01/24 09:56:11;;;;;;;0.37;0.37;;;;;;;12.63;100.00;98838.63;5074041;28;20207;-77
2024/01/24 09:58:38;;;;;;;0.40;0.40;;;;;;;12.69;100.00;98846.16;5076265;28;20315;-80
2024/01/24 10:01:11;;;;;;;1.33;0.70;;;;;;;12.71;100.00;98838.97;5076547;28;20208;-78
2024/01/24 10:03:38;;;;;;;0.80;0.30;;;;;;;12.77;100.00;98850.03;5076892;28;20234;-80
2024/01/24 10:06:07;;;;;;;0.20;0.20;;;;;;;12.78;100.00;98845.56;5078134;28;20320;-80
2024/01/24 10:08:35;;;;;;;0.20;0.20;;;;;;;12.84;100.00;98847.81;5076680;28;20207;-79
2024/01/24 10:11:01;;;;;;;0.20;0.20;;;;;;;12.89;100.00;98837.75;5076422;28;20222;-79
2024/01/24 10:13:28;;;;;;;0.63;0.23;;;;;;;12.94;100.00;98847.09;5081425;28;20207;-78
2024/01/24 10:15:55;;;;;;;0.27;0.27;;;;;;;13.02;100.00;98838.66;5081617;28;20219;-78
2024/01/24 10:18:23;;;;;;;0.47;0.20;;;;;;;13.02;100.00;98851.94;5081729;28;20230;-78
2024/01/24 10:20:49;;;;;;;3.03;0.60;;;;;;;12.99;100.00;98854.78;5081057;28;20629;-77
2024/01/24 10:23:16;;;;;;;0.60;0.40;;;;;;;13.04;100.00;98852.66;5076375;28;20326;-79
2024/01/24 10:25:44;;;;;;;0.20;0.20;;;;;;;13.00;100.00;98862.63;5077800;28;20218;-80
2024/01/24 10:28:13;;;;;;;0.20;0.10;;;;;;;12.99;100.00;98854.78;5075697;28;20289;-80
2024/01/24 10:30:41;;;;;;;1.70;1.10;;;;;;;13.07;100.00;98865.75;5075953;28;20269;-77
2024/01/24 10:33:11;;;;;;;0.97;0.70;;;;;;;13.14;100.00;98874.97;5076203;28;20228;-77
2024/01/24 10:35:37;;;;;;;0.50;0.50;;;;;;;13.21;100.00;98865.66;5076068;28;20218;-81
2024/01/24 10:38:05;;;;;;;0.40;0.30;;;;;;;13.22;100.00;98867.34;5073485;28;20216;-76
2024/01/24 10:40:32;;;;;;;0.20;0.20;;;;;;;13.18;100.00;98882.63;5073461;28;20208;-77
2024/01/24 10:43:06;;;;;;;1.70;0.20;;;;;;;13.18;100.00;98866.69;5073935;28;20242;-78
2024/01/24 10:45:34;;;;;;;0.20;0.20;;;;;;;13.10;100.00;98900.03;5074519;28;20207;-77
2024/01/24 10:48:01;;;;;;;0.30;0.30;;;;;;;12.93;100.00;98909.09;5073874;28;20214;-77
2024/01/24 10:50:30;;;;;;;0.20;0.20;;;;;;;12.83;100.00;98933.66;5072962;28;20204;-77
2024/01/24 10:52:58;;;;;;;0.20;0.20;;;;;;;12.76;100.00;98937.66;5074216;28;20235;-78
2024/01/24 10:55:25;;;;;;;1.87;0.33;;;;;;;12.85;100.00;98907.88;5075380;28;20208;-76
2024/01/24 10:57:53;;;;;;;0.20;0.20;;;;;;;12.98;100.00;98911.44;5075393;28;20430;-77
2024/01/24 11:00:22;;;;;;;0.20;0.20;;;;;;;13.14;100.00;98906.84;5067872;28;20469;-77
2024/01/24 11:02:49;;;;;;;0.20;0.20;;;;;;;13.19;100.00;98897.59;5064773;28;20227;-77
2024/01/24 11:05:21;;;;;;;0.47;0.47;;;;;;;13.22;100.00;98904.50;5069603;28;20298;-77
2024/01/24 11:07:55;;;;;;;0.30;0.20;;;;;;;13.24;100.00;98900.78;5068597;28;20437;-76
2024/01/24 11:10:25;;;;;;;0.77;0.30;;;;;;;13.28;100.00;98898.78;5069592;28;20437;-77
2024/01/24 11:12:52;;;;;;;0.40;0.30;;;;;;;13.28;100.00;98889.03;5072085;28;20330;-78
2024/01/24 11:15:18;;;;;;;0.30;0.30;;;;;;;13.18;100.00;98897.69;5073373;28;20203;-78
2024/01/24 11:17:47;;;;;;;0.77;0.40;;;;;;;13.03;100.00;98912.00;5072146;28;20207;-78
2024/01/24 11:20:14;;;;;;;0.53;0.30;;;;;;;12.93;100.00;98918.81;5072191;28;20566;-78
2024/01/24 11:22:42;;;;;;;0.37;0.37;;;;;;;12.82;100.00;98927.50;5071220;28;20235;-78
2024/01/24 11:25:12;;;;;;;0.20;0.20;;;;;;;12.72;100.00;98937.00;5071281;28;20647;-78
2024/01/24 11:27:41;;;;;;;1.30;0.30;;;;;;;12.64;100.00;98949.06;5069997;28;20264;-78